sensor_id;sensor_type;location;lat;lon;timestamp;pressure;altitude;pressure_sealevel;temperature;humidity
10658;BME280;5377;43.276;26.930;2022-07-15T00:02:26;98963.69;;;20.87;71.88
10658;BME280;5377;43.276;26.930;2022-07-15T00:04:53;98989.53;;;21.00;67.49
10658;BME280;5377;43.276;26.930;2022-07-15T00:07:20;98992.81;;;20.86;69.63
10658;BME280;5377;43.276;26.930;2022-07-15T00:09:47;98887.47;;;20.26;69.90
10658;BME280;5377;43.276;26.930;2022-07-15T00:12:56;99003.97;;;20.95;72.72
10658;BME280;5377;43.276;26.930;2022-07-15T00:15:24;98981.63;;;20.68;74.42
10658;BME280;5377;43.276;26.930;2022-07-15T00:17:52;98971.56;;;20.73;68.83
10658;BME280;5377;43.276;26.930;2022-07-15T00:20:20;98970.75;;;20.78;71.19
10658;BME280;5377;43.276;26.930;2022-07-15T00:22:48;98969.66;;;20.89;70.46
10658;BME280;5377;43.276;26.930;2022-07-15T00:25:16;98971.03;;;20.86;70.75
10658;BME280;5377;43.276;26.930;2022-07-15T00:27:53;98990.34;;;21.00;70.04
10658;BME280;5377;43.276;26.930;2022-07-15T00:30:22;98962.59;;;20.83;70.49
10658;BME280;5377;43.276;26.930;2022-07-15T00:32:50;98968.03;;;20.83;69.92
10658;BME280;5377;43.276;26.930;2022-07-15T00:35:17;98983.28;;;20.94;70.17
10658;BME280;5377;43.276;26.930;2022-07-15T00:37:43;98982.72;;;20.97;67.21
10658;BME280;5377;43.276;26.930;2022-07-15T00:40:11;98977.28;;;20.97;69.34
10658;BME280;5377;43.276;26.930;2022-07-15T00:42:39;98971.56;;;20.94;69.67
10658;BME280;5377;43.276;26.930;2022-07-15T00:48:30;98965.59;;;20.81;68.69
10658;BME280;5377;43.276;26.930;2022-07-15T00:50:57;98967.47;;;20.76;69.24
10658;BME280;5377;43.276;26.930;2022-07-15T00:53:26;98974.00;;;20.80;69.76
10658;BME280;5377;43.276;26.930;2022-07-15T00:55:58;98965.03;;;20.84;69.86
10658;BME280;5377;43.276;26.930;2022-07-15T00:58:26;98975.94;;;20.90;67.64
10658;BME280;5377;43.276;26.930;2022-07-15T01:00:54;98965.31;;;20.83;66.18
10658;BME280;5377;43.276;26.930;2022-07-15T01:03:26;98964.75;;;20.71;67.17
10658;BME280;5377;43.276;26.930;2022-07-15T01:05:56;98955.78;;;20.55;69.95
10658;BME280;5377;43.276;26.930;2022-07-15T01:08:24;98931.81;;;20.37;69.53
10658;BME280;5377;43.276;26.930;2022-07-15T01:10:52;98926.63;;;20.35;68.26
10658;BME280;5377;43.276;26.930;2022-07-15T01:13:19;98874.38;;;20.08;67.85
10658;BME280;5377;43.276;26.930;2022-07-15T01:15:47;98943.00;;;20.50;67.61
10658;BME280;5377;43.276;26.930;2022-07-15T01:28:34;98929.94;;;20.52;70.44
10658;BME280;5377;43.276;26.930;2022-07-15T01:37:49;98946.53;;;20.41;69.96
10658;BME280;5377;43.276;26.930;2022-07-15T01:40:16;98946.75;;;20.39;70.04
10658;BME280;5377;43.276;26.930;2022-07-15T01:42:43;98905.97;;;20.19;68.79
10658;BME280;5377;43.276;26.930;2022-07-15T01:45:12;98954.69;;;20.41;69.18
10658;BME280;5377;43.276;26.930;2022-07-15T01:47:43;98916.28;;;20.27;67.74
10658;BME280;5377;43.276;26.930;2022-07-15T01:50:10;98942.41;;;20.28;69.09
10658;BME280;5377;43.276;26.930;2022-07-15T01:52:36;98922.53;;;20.07;71.95
10658;BME280;5377;43.276;26.930;2022-07-15T01:55:04;98924.69;;;20.05;71.67
10658;BME280;5377;43.276;26.930;2022-07-15T01:57:31;98840.63;;;19.58;69.44
10658;BME280;5377;43.276;26.930;2022-07-15T01:59:58;98945.69;;;20.25;71.30
10658;BME280;5377;43.276;26.930;2022-07-15T02:47:14;98950.59;;;19.50;80.07
10658;BME280;5377;43.276;26.930;2022-07-15T03:27:29;98931.84;;;19.49;80.23
10658;BME280;5377;43.276;26.930;2022-07-15T04:08:51;98939.13;;;20.16;78.36
10658;BME280;5377;43.276;26.930;2022-07-15T04:11:18;98910.53;;;19.93;78.94
10658;BME280;5377;43.276;26.930;2022-07-15T04:13:45;98937.25;;;20.16;79.23
10658;BME280;5377;43.276;26.930;2022-07-15T04:16:13;98959.28;;;20.30;79.22
10658;BME280;5377;43.276;26.930;2022-07-15T04:18:40;98957.09;;;20.27;80.59
10658;BME280;5377;43.276;26.930;2022-07-15T04:21:07;98934.78;;;20.25;80.49
10658;BME280;5377;43.276;26.930;2022-07-15T04:23:34;98953.28;;;20.18;83.20
10658;BME280;5377;43.276;26.930;2022-07-15T04:26:03;98963.66;;;20.41;83.31
10658;BME280;5377;43.276;26.930;2022-07-15T04:28:30;98965.25;;;20.37;84.67
10658;BME280;5377;43.276;26.930;2022-07-15T04:30:57;98922.81;;;20.21;83.53
10658;BME280;5377;43.276;26.930;2022-07-15T04:33:24;98960.41;;;20.54;83.05
10658;BME280;5377;43.276;26.930;2022-07-15T04:35:50;98947.91;;;20.53;81.73
10658;BME280;5377;43.276;26.930;2022-07-15T04:38:17;98944.06;;;20.70;79.77
10658;BME280;5377;43.276;26.930;2022-07-15T04:40:44;98951.44;;;20.69;77.88
10658;BME280;5377;43.276;26.930;2022-07-15T04:43:13;98946.78;;;20.90;76.46
10658;BME280;5377;43.276;26.930;2022-07-15T04:45:39;98934.25;;;20.94;75.86
10658;BME280;5377;43.276;26.930;2022-07-15T04:48:06;98934.22;;;21.04;75.77
10658;BME280;5377;43.276;26.930;2022-07-15T04:50:54;98927.66;;;21.15;76.19
10658;BME280;5377;43.276;26.930;2022-07-15T04:53:21;98912.44;;;21.09;74.28
10658;BME280;5377;43.276;26.930;2022-07-15T04:55:48;98944.03;;;21.26;75.02
10658;BME280;5377;43.276;26.930;2022-07-15T04:58:17;98951.84;;;21.47;74.92
10658;BME280;5377;43.276;26.930;2022-07-15T05:00:44;98877.31;;;21.03;75.71
10658;BME280;5377;43.276;26.930;2022-07-15T05:03:12;98853.16;;;20.76;77.08
10658;BME280;5377;43.276;26.930;2022-07-15T05:05:39;98919.78;;;21.24;77.73
10658;BME280;5377;43.276;26.930;2022-07-15T05:08:07;98946.69;;;21.51;78.29
10658;BME280;5377;43.276;26.930;2022-07-15T05:10:34;98945.06;;;21.40;78.16
10658;BME280;5377;43.276;26.930;2022-07-15T05:13:01;98872.16;;;21.01;77.74
10658;BME280;5377;43.276;26.930;2022-07-15T05:15:30;98949.69;;;21.44;78.00
10658;BME280;5377;43.276;26.930;2022-07-15T05:17:57;98938.25;;;21.42;77.67
10658;BME280;5377;43.276;26.930;2022-07-15T05:20:24;98921.63;;;21.39;77.37
10658;BME280;5377;43.276;26.930;2022-07-15T05:22:51;98955.91;;;21.50;76.28
10658;BME280;5377;43.276;26.930;2022-07-15T05:25:18;98908.53;;;21.41;76.78
10658;BME280;5377;43.276;26.930;2022-07-15T05:27:45;98921.31;;;21.45;77.48
10658;BME280;5377;43.276;26.930;2022-07-15T05:30:13;98947.13;;;21.68;78.24
10658;BME280;5377;43.276;26.930;2022-07-15T05:32:43;98959.06;;;21.83;77.26
10658;BME280;5377;43.276;26.930;2022-07-15T05:35:12;98957.09;;;21.93;77.13
10658;BME280;5377;43.276;26.930;2022-07-15T05:37:40;98969.94;;;21.93;75.43
10658;BME280;5377;43.276;26.930;2022-07-15T05:40:09;98948.00;;;22.13;74.81
10658;BME280;5377;43.276;26.930;2022-07-15T05:42:37;98954.28;;;22.14;73.97
10658;BME280;5377;43.276;26.930;2022-07-15T05:45:05;98963.03;;;22.10;73.17
10658;BME280;5377;43.276;26.930;2022-07-15T05:47:32;98940.06;;;22.22;73.51
10658;BME280;5377;43.276;26.930;2022-07-15T05:50:04;98931.03;;;22.26;73.48
10658;BME280;5377;43.276;26.930;2022-07-15T05:52:31;98946.84;;;22.24;73.16
10658;BME280;5377;43.276;26.930;2022-07-15T05:54:58;98939.66;;;22.38;72.28
10658;BME280;5377;43.276;26.930;2022-07-15T05:57:26;98940.56;;;22.29;71.14
10658;BME280;5377;43.276;26.930;2022-07-15T05:59:53;98862.72;;;21.97;70.71
10658;BME280;5377;43.276;26.930;2022-07-15T06:02:20;98852.88;;;22.01;69.96
10658;BME280;5377;43.276;26.930;2022-07-15T06:04:47;98909.53;;;22.49;69.55
10658;BME280;5377;43.276;26.930;2022-07-15T06:07:15;98927.97;;;22.67;69.60
10658;BME280;5377;43.276;26.930;2022-07-15T06:09:42;98938.78;;;22.77;69.22
10658;BME280;5377;43.276;26.930;2022-07-15T06:12:09;98941.72;;;22.91;67.85
10658;BME280;5377;43.276;26.930;2022-07-15T06:14:36;98887.81;;;22.67;67.26
10658;BME280;5377;43.276;26.930;2022-07-15T06:17:03;98889.06;;;22.80;66.92
10658;BME280;5377;43.276;26.930;2022-07-15T06:19:30;98923.28;;;23.01;67.03
10658;BME280;5377;43.276;26.930;2022-07-15T06:21:57;98914.88;;;22.98;66.19
10658;BME280;5377;43.276;26.930;2022-07-15T06:24:26;98918.53;;;23.12;65.41
10658;BME280;5377;43.276;26.930;2022-07-15T06:26:53;98943.94;;;23.37;64.99
10658;BME280;5377;43.276;26.930;2022-07-15T06:29:20;98921.72;;;23.43;64.44
10658;BME280;5377;43.276;26.930;2022-07-15T06:31:47;98892.19;;;23.21;63.60
10658;BME280;5377;43.276;26.930;2022-07-15T06:34:14;98908.94;;;23.62;62.53
10658;BME280;5377;43.276;26.930;2022-07-15T06:36:41;98887.59;;;23.41;62.44
10658;BME280;5377;43.276;26.930;2022-07-15T06:39:08;98929.06;;;23.72;62.90
10658;BME280;5377;43.276;26.930;2022-07-15T06:41:37;98898.00;;;23.62;63.52
10658;BME280;5377;43.276;26.930;2022-07-15T06:44:04;98922.94;;;23.99;63.45
10658;BME280;5377;43.276;26.930;2022-07-15T06:46:31;98896.75;;;23.92;63.18
10658;BME280;5377;43.276;26.930;2022-07-15T06:48:58;98900.53;;;24.15;62.47
10658;BME280;5377;43.276;26.930;2022-07-15T06:51:26;98907.97;;;24.47;61.52
10658;BME280;5377;43.276;26.930;2022-07-15T06:53:53;98917.00;;;24.48;62.59
10658;BME280;5377;43.276;26.930;2022-07-15T06:56:20;98911.22;;;24.49;62.33
10658;BME280;5377;43.276;26.930;2022-07-15T06:58:48;98909.09;;;24.79;61.69
10658;BME280;5377;43.276;26.930;2022-07-15T07:01:15;98909.09;;;24.93;62.43
10658;BME280;5377;43.276;26.930;2022-07-15T07:03:42;98872.16;;;24.76;63.08
10658;BME280;5377;43.276;26.930;2022-07-15T07:06:09;98886.38;;;24.78;63.22
10658;BME280;5377;43.276;26.930;2022-07-15T07:08:36;98902.47;;;24.99;62.80
10658;BME280;5377;43.276;26.930;2022-07-15T07:11:03;98890.13;;;24.82;62.71
10658;BME280;5377;43.276;26.930;2022-07-15T07:13:29;98843.00;;;24.53;63.35
10658;BME280;5377;43.276;26.930;2022-07-15T07:15:58;98883.22;;;24.85;62.39
10658;BME280;5377;43.276;26.930;2022-07-15T07:18:25;98907.25;;;25.21;60.94
10658;BME280;5377;43.276;26.930;2022-07-15T07:20:52;98908.56;;;25.23;60.32
10658;BME280;5377;43.276;26.930;2022-07-15T07:23:19;98813.19;;;24.93;61.81
10658;BME280;5377;43.276;26.930;2022-07-15T07:25:48;98888.63;;;25.59;59.79
10658;BME280;5377;43.276;26.930;2022-07-15T07:28:15;98897.28;;;25.79;58.89
10658;BME280;5377;43.276;26.930;2022-07-15T07:30:42;98889.22;;;25.83;58.40
10658;BME280;5377;43.276;26.930;2022-07-15T07:33:11;98814.56;;;25.59;57.66
10658;BME280;5377;43.276;26.930;2022-07-15T07:35:38;98790.56;;;25.64;57.00
10658;BME280;5377;43.276;26.930;2022-07-15T07:38:05;98873.00;;;26.31;56.47
10658;BME280;5377;43.276;26.930;2022-07-15T07:40:32;98892.88;;;26.51;55.71
10658;BME280;5377;43.276;26.930;2022-07-15T07:42:59;98866.22;;;26.51;55.67
10658;BME280;5377;43.276;26.930;2022-07-15T07:45:26;98854.81;;;26.66;54.26
10658;BME280;5377;43.276;26.930;2022-07-15T07:47:54;98877.50;;;27.03;54.98
10658;BME280;5377;43.276;26.930;2022-07-15T07:50:22;98871.09;;;27.16;53.36
10658;BME280;5377;43.276;26.930;2022-07-15T07:52:51;98857.50;;;27.20;52.85
10658;BME280;5377;43.276;26.930;2022-07-15T07:55:18;98857.59;;;27.46;53.15
10658;BME280;5377;43.276;26.930;2022-07-15T07:57:49;98868.31;;;27.64;50.95
10658;BME280;5377;43.276;26.930;2022-07-15T08:00:17;98844.34;;;27.56;51.15
10658;BME280;5377;43.276;26.930;2022-07-15T08:02:44;98883.41;;;27.76;49.66
10658;BME280;5377;43.276;26.930;2022-07-15T08:05:12;98881.31;;;27.81;50.65
10658;BME280;5377;43.276;26.930;2022-07-15T08:07:42;98859.63;;;27.88;49.85
10658;BME280;5377;43.276;26.930;2022-07-15T08:10:10;98883.25;;;27.98;48.25
10658;BME280;5377;43.276;26.930;2022-07-15T08:12:38;98800.84;;;27.84;50.68
10658;BME280;5377;43.276;26.930;2022-07-15T08:15:07;98872.75;;;28.35;47.60
10658;BME280;5377;43.276;26.930;2022-07-15T08:17:34;98875.00;;;28.50;46.55
10658;BME280;5377;43.276;26.930;2022-07-15T08:20:01;98861.19;;;28.58;45.88
10658;BME280;5377;43.276;26.930;2022-07-15T08:22:28;98859.94;;;28.47;46.25
10658;BME280;5377;43.276;26.930;2022-07-15T08:24:58;98877.53;;;28.72;45.16
10658;BME280;5377;43.276;26.930;2022-07-15T08:27:24;98854.19;;;28.87;43.84
10658;BME280;5377;43.276;26.930;2022-07-15T08:29:51;98866.81;;;28.88;39.69
10658;BME280;5377;43.276;26.930;2022-07-15T08:32:19;98885.72;;;29.07;40.20
10658;BME280;5377;43.276;26.930;2022-07-15T08:34:46;98836.78;;;28.95;39.23
10658;BME280;5377;43.276;26.930;2022-07-15T08:37:13;98848.03;;;29.19;38.62
10658;BME280;5377;43.276;26.930;2022-07-15T08:39:40;98860.38;;;29.43;39.97
10658;BME280;5377;43.276;26.930;2022-07-15T08:42:08;98828.06;;;29.52;39.26
10658;BME280;5377;43.276;26.930;2022-07-15T08:44:36;98850.16;;;29.94;36.27
10658;BME280;5377;43.276;26.930;2022-07-15T08:47:04;98850.94;;;30.36;33.83
10658;BME280;5377;43.276;26.930;2022-07-15T08:49:32;98864.88;;;30.60;35.20
10658;BME280;5377;43.276;26.930;2022-07-15T08:52:01;98858.78;;;30.67;34.59
10658;BME280;5377;43.276;26.930;2022-07-15T08:54:29;98851.66;;;30.78;35.07
10658;BME280;5377;43.276;26.930;2022-07-15T08:56:56;98851.94;;;31.58;34.77
10658;BME280;5377;43.276;26.930;2022-07-15T08:59:25;98833.66;;;31.82;33.80
10658;BME280;5377;43.276;26.930;2022-07-15T09:01:52;98854.63;;;32.35;32.62
10658;BME280;5377;43.276;26.930;2022-07-15T09:04:20;98845.97;;;32.37;33.06
10658;BME280;5377;43.276;26.930;2022-07-15T09:06:48;98841.66;;;32.11;32.87
10658;BME280;5377;43.276;26.930;2022-07-15T09:09:32;98780.59;;;31.80;31.98
10658;BME280;5377;43.276;26.930;2022-07-15T09:12:02;98838.63;;;32.29;33.09
10658;BME280;5377;43.276;26.930;2022-07-15T09:14:32;98832.78;;;32.62;31.51
10658;BME280;5377;43.276;26.930;2022-07-15T09:17:07;98829.78;;;32.39;31.26
10658;BME280;5377;43.276;26.930;2022-07-15T09:19:58;98831.03;;;32.85;31.24
10658;BME280;5377;43.276;26.930;2022-07-15T09:22:27;98826.72;;;33.35;31.75
10658;BME280;5377;43.276;26.930;2022-07-15T09:25:02;98752.72;;;33.27;30.08
10658;BME280;5377;43.276;26.930;2022-07-15T09:27:31;98813.38;;;33.60;29.35
10658;BME280;5377;43.276;26.930;2022-07-15T09:30:16;98806.06;;;34.06;28.92
10658;BME280;5377;43.276;26.930;2022-07-15T09:33:03;98790.56;;;33.51;28.64
10658;BME280;5377;43.276;26.930;2022-07-15T09:35:48;98776.00;;;33.22;29.23
10658;BME280;5377;43.276;26.930;2022-07-15T09:38:35;98800.75;;;33.82;30.33
10658;BME280;5377;43.276;26.930;2022-07-15T09:41:06;98804.66;;;33.96;28.38
10658;BME280;5377;43.276;26.930;2022-07-15T09:43:46;98798.31;;;34.57;27.82
10658;BME280;5377;43.276;26.930;2022-07-15T09:46:14;98729.03;;;34.06;27.75
10658;BME280;5377;43.276;26.930;2022-07-15T09:48:42;98793.19;;;34.36;27.19
10658;BME280;5377;43.276;26.930;2022-07-15T09:51:10;98769.69;;;34.15;27.44
10658;BME280;5377;43.276;26.930;2022-07-15T09:53:37;98799.91;;;34.58;27.79
10658;BME280;5377;43.276;26.930;2022-07-15T09:56:07;98797.94;;;34.82;27.12
10658;BME280;5377;43.276;26.930;2022-07-15T09:58:37;98774.13;;;34.61;26.92
10658;BME280;5377;43.276;26.930;2022-07-15T10:01:06;98769.16;;;34.28;27.25
10658;BME280;5377;43.276;26.930;2022-07-15T10:03:34;98778.22;;;34.67;28.26
10658;BME280;5377;43.276;26.930;2022-07-15T10:06:02;98768.22;;;34.86;26.79
10658;BME280;5377;43.276;26.930;2022-07-15T10:08:30;98714.75;;;34.99;27.06
10658;BME280;5377;43.276;26.930;2022-07-15T10:10:57;98774.88;;;34.81;26.53
10658;BME280;5377;43.276;26.930;2022-07-15T10:13:34;98755.50;;;34.85;26.65
10658;BME280;5377;43.276;26.930;2022-07-15T10:16:15;98772.34;;;35.22;25.77
10658;BME280;5377;43.276;26.930;2022-07-15T10:18:59;98705.59;;;34.72;25.82
10658;BME280;5377;43.276;26.930;2022-07-15T10:21:36;98772.22;;;35.11;24.90
10658;BME280;5377;43.276;26.930;2022-07-15T10:24:40;98748.69;;;34.36;26.07
10658;BME280;5377;43.276;26.930;2022-07-15T10:27:31;98737.69;;;34.01;26.18
10658;BME280;5377;43.276;26.930;2022-07-15T10:30:03;98761.28;;;34.11;26.34
10658;BME280;5377;43.276;26.930;2022-07-15T10:33:07;98762.53;;;34.14;26.08
10658;BME280;5377;43.276;26.930;2022-07-15T10:35:40;98698.19;;;33.54;26.98
10658;BME280;5377;43.276;26.930;2022-07-15T10:38:22;98750.63;;;33.74;27.74
10658;BME280;5377;43.276;26.930;2022-07-15T10:40:59;98759.19;;;33.66;27.34
10658;BME280;5377;43.276;26.930;2022-07-15T10:43:43;98765.72;;;33.38;27.95
10658;BME280;5377;43.276;26.930;2022-07-15T10:46:18;98760.13;;;33.73;28.02
10658;BME280;5377;43.276;26.930;2022-07-15T10:48:46;98763.34;;;33.75;27.79
10658;BME280;5377;43.276;26.930;2022-07-15T10:51:45;98764.72;;;33.66;27.40
10658;BME280;5377;43.276;26.930;2022-07-15T10:57:12;98735.19;;;33.58;26.48
10658;BME280;5377;43.276;26.930;2022-07-15T10:59:52;98762.03;;;33.69;26.91
10658;BME280;5377;43.276;26.930;2022-07-15T11:02:22;98760.59;;;33.60;27.26
10658;BME280;5377;43.276;26.930;2022-07-15T11:04:50;98756.41;;;33.66;27.33
10658;BME280;5377;43.276;26.930;2022-07-15T11:07:28;98760.69;;;33.63;27.92
10658;BME280;5377;43.276;26.930;2022-07-15T11:10:11;98760.47;;;33.53;27.13
10658;BME280;5377;43.276;26.930;2022-07-15T11:13:07;98758.13;;;33.55;26.87
10658;BME280;5377;43.276;26.930;2022-07-15T11:15:33;98738.38;;;33.60;27.25
10658;BME280;5377;43.276;26.930;2022-07-15T11:18:02;98743.44;;;33.54;26.16
10658;BME280;5377;43.276;26.930;2022-07-15T11:20:32;98718.38;;;33.15;26.41
10658;BME280;5377;43.276;26.930;2022-07-15T11:23:02;98687.84;;;33.15;26.54
10658;BME280;5377;43.276;26.930;2022-07-15T11:25:33;98714.28;;;33.44;26.52
10658;BME280;5377;43.276;26.930;2022-07-15T11:28:04;98734.63;;;33.68;26.49
10658;BME280;5377;43.276;26.930;2022-07-15T11:30:33;98745.78;;;34.33;25.83
10658;BME280;5377;43.276;26.930;2022-07-15T11:33:02;98740.00;;;34.64;24.90
10658;BME280;5377;43.276;26.930;2022-07-15T11:35:30;98727.84;;;35.25;24.13
10658;BME280;5377;43.276;26.930;2022-07-15T11:38:03;98734.50;;;35.74;24.38
10658;BME280;5377;43.276;26.930;2022-07-15T11:40:31;98741.94;;;35.96;24.18
10658;BME280;5377;43.276;26.930;2022-07-15T11:43:18;98727.44;;;36.17;23.24
10658;BME280;5377;43.276;26.930;2022-07-15T11:46:02;98732.41;;;36.01;24.54
10658;BME280;5377;43.276;26.930;2022-07-15T11:48:35;98713.09;;;36.18;23.41
10658;BME280;5377;43.276;26.930;2022-07-15T11:51:04;98718.75;;;36.25;23.26
10658;BME280;5377;43.276;26.930;2022-07-15T11:53:36;98718.63;;;36.52;23.49
10658;BME280;5377;43.276;26.930;2022-07-15T11:56:03;98689.78;;;36.37;22.89
10658;BME280;5377;43.276;26.930;2022-07-15T11:58:33;98702.31;;;36.58;23.55
10658;BME280;5377;43.276;26.930;2022-07-15T12:01:02;98715.31;;;36.83;23.68
10658;BME280;5377;43.276;26.930;2022-07-15T12:03:33;98694.28;;;37.04;22.52
10658;BME280;5377;43.276;26.930;2022-07-15T12:06:03;98681.41;;;36.85;22.50
10658;BME280;5377;43.276;26.930;2022-07-15T12:08:43;98701.63;;;36.75;23.26
10658;BME280;5377;43.276;26.930;2022-07-15T12:11:18;98704.00;;;36.69;22.72
10658;BME280;5377;43.276;26.930;2022-07-15T12:13:48;98697.94;;;36.16;23.65
10658;BME280;5377;43.276;26.930;2022-07-15T12:16:19;98708.28;;;35.78;23.92
10658;BME280;5377;43.276;26.930;2022-07-15T12:18:47;98705.09;;;35.80;25.15
10658;BME280;5377;43.276;26.930;2022-07-15T12:21:15;98651.94;;;35.32;24.81
10658;BME280;5377;43.276;26.930;2022-07-15T12:24:00;98702.94;;;35.66;24.68
10658;BME280;5377;43.276;26.930;2022-07-15T12:26:27;98704.56;;;35.71;25.53
10658;BME280;5377;43.276;26.930;2022-07-15T12:28:55;98681.69;;;35.84;25.31
10658;BME280;5377;43.276;26.930;2022-07-15T12:31:26;98679.72;;;36.29;25.20
10658;BME280;5377;43.276;26.930;2022-07-15T12:33:54;98692.94;;;36.80;25.00
10658;BME280;5377;43.276;26.930;2022-07-15T12:36:23;98691.75;;;36.33;24.13
10658;BME280;5377;43.276;26.930;2022-07-15T12:39:08;98692.44;;;36.27;24.28
10658;BME280;5377;43.276;26.930;2022-07-15T12:41:36;98678.69;;;36.44;24.74
10658;BME280;5377;43.276;26.930;2022-07-15T12:44:04;98652.56;;;36.22;23.48
10658;BME280;5377;43.276;26.930;2022-07-15T12:46:51;98678.13;;;35.87;23.87
10658;BME280;5377;43.276;26.930;2022-07-15T12:49:45;98674.78;;;36.12;23.28
10658;BME280;5377;43.276;26.930;2022-07-15T12:52:18;98669.22;;;36.12;23.41
10658;BME280;5377;43.276;26.930;2022-07-15T12:54:48;98693.03;;;36.06;23.20
10658;BME280;5377;43.276;26.930;2022-07-15T12:57:20;98705.44;;;36.08;23.94
10658;BME280;5377;43.276;26.930;2022-07-15T12:59:53;98677.44;;;35.98;24.79
10658;BME280;5377;43.276;26.930;2022-07-15T13:02:21;98687.13;;;35.74;24.77
10658;BME280;5377;43.276;26.930;2022-07-15T13:04:48;98682.72;;;35.39;24.65
10658;BME280;5377;43.276;26.930;2022-07-15T13:07:16;98690.81;;;34.95;25.10
10658;BME280;5377;43.276;26.930;2022-07-15T13:09:44;98677.94;;;34.60;25.22
10658;BME280;5377;43.276;26.930;2022-07-15T13:12:13;98694.03;;;34.70;26.04
10658;BME280;5377;43.276;26.930;2022-07-15T13:14:40;98698.41;;;34.71;26.48
10658;BME280;5377;43.276;26.930;2022-07-15T13:17:08;98678.00;;;34.64;26.24
10658;BME280;5377;43.276;26.930;2022-07-15T13:19:35;98632.91;;;34.28;25.75
10658;BME280;5377;43.276;26.930;2022-07-15T13:22:01;98659.00;;;34.43;25.55
10658;BME280;5377;43.276;26.930;2022-07-15T13:24:28;98670.25;;;34.50;26.16
10658;BME280;5377;43.276;26.930;2022-07-15T13:26:55;98600.69;;;34.01;26.28
10658;BME280;5377;43.276;26.930;2022-07-15T13:29:24;98635.41;;;34.60;25.82
10658;BME280;5377;43.276;26.930;2022-07-15T13:31:51;98686.09;;;35.25;24.70
10658;BME280;5377;43.276;26.930;2022-07-15T13:34:18;98657.78;;;35.20;25.30
10658;BME280;5377;43.276;26.930;2022-07-15T13:36:45;98610.22;;;34.76;25.38
10658;BME280;5377;43.276;26.930;2022-07-15T13:39:12;98596.56;;;34.67;25.21
10658;BME280;5377;43.276;26.930;2022-07-15T13:41:38;98690.19;;;35.05;24.52
10658;BME280;5377;43.276;26.930;2022-07-15T13:44:05;98673.50;;;35.05;24.97
10658;BME280;5377;43.276;26.930;2022-07-15T13:46:34;98651.34;;;34.86;23.75
10658;BME280;5377;43.276;26.930;2022-07-15T13:49:01;98659.47;;;34.71;24.19
10658;BME280;5377;43.276;26.930;2022-07-15T13:51:28;98670.16;;;34.69;24.59
10658;BME280;5377;43.276;26.930;2022-07-15T13:53:55;98679.47;;;34.81;25.63
10658;BME280;5377;43.276;26.930;2022-07-15T13:56:23;98676.16;;;34.71;25.53
10658;BME280;5377;43.276;26.930;2022-07-15T13:58:50;98656.81;;;34.56;24.80
10658;BME280;5377;43.276;26.930;2022-07-15T14:01:17;98666.34;;;34.55;24.35
10658;BME280;5377;43.276;26.930;2022-07-15T14:03:45;98699.34;;;34.56;25.23
10658;BME280;5377;43.276;26.930;2022-07-15T14:06:12;98669.75;;;34.45;24.92
10658;BME280;5377;43.276;26.930;2022-07-15T14:08:39;98645.25;;;34.31;24.97
10658;BME280;5377;43.276;26.930;2022-07-15T14:11:06;98672.44;;;34.37;26.54
10658;BME280;5377;43.276;26.930;2022-07-15T14:13:33;98672.59;;;34.02;26.50
10658;BME280;5377;43.276;26.930;2022-07-15T14:16:00;98670.72;;;33.87;25.52
10658;BME280;5377;43.276;26.930;2022-07-15T14:18:27;98659.16;;;33.85;25.51
10658;BME280;5377;43.276;26.930;2022-07-15T14:21:13;98627.75;;;33.42;25.74
10658;BME280;5377;43.276;26.930;2022-07-15T14:23:41;98672.69;;;33.67;25.78
10658;BME280;5377;43.276;26.930;2022-07-15T14:26:08;98663.69;;;33.55;28.40
10658;BME280;5377;43.276;26.930;2022-07-15T14:28:35;98657.13;;;33.43;28.10
10658;BME280;5377;43.276;26.930;2022-07-15T14:31:04;98652.69;;;33.39;29.14
10658;BME280;5377;43.276;26.930;2022-07-15T14:33:31;98596.59;;;32.95;29.96
10658;BME280;5377;43.276;26.930;2022-07-15T14:35:58;98671.47;;;33.30;30.93
10658;BME280;5377;43.276;26.930;2022-07-15T14:38:26;98670.31;;;33.11;31.65
10658;BME280;5377;43.276;26.930;2022-07-15T14:40:53;98637.19;;;32.83;30.93
10658;BME280;5377;43.276;26.930;2022-07-15T14:43:20;98669.03;;;32.90;30.69
10658;BME280;5377;43.276;26.930;2022-07-15T14:45:47;98661.72;;;32.81;31.19
10658;BME280;5377;43.276;26.930;2022-07-15T14:48:14;98658.75;;;32.74;32.27
10658;BME280;5377;43.276;26.930;2022-07-15T14:50:41;98665.56;;;32.61;33.07
10658;BME280;5377;43.276;26.930;2022-07-15T14:53:08;98637.50;;;32.15;35.30
10658;BME280;5377;43.276;26.930;2022-07-15T14:55:36;98592.53;;;31.75;35.07
10658;BME280;5377;43.276;26.930;2022-07-15T14:58:03;98663.38;;;32.35;35.05
10658;BME280;5377;43.276;26.930;2022-07-15T15:00:30;98662.09;;;32.64;34.75
10658;BME280;5377;43.276;26.930;2022-07-15T15:02:57;98650.38;;;33.06;33.80
10658;BME280;5377;43.276;26.930;2022-07-15T15:05:24;98564.50;;;32.78;33.21
10658;BME280;5377;43.276;26.930;2022-07-15T15:07:51;98566.28;;;33.25;30.42
10658;BME280;5377;43.276;26.930;2022-07-15T15:10:18;98654.41;;;34.31;29.87
10658;BME280;5377;43.276;26.930;2022-07-15T15:12:46;98636.00;;;34.46;29.14
10658;BME280;5377;43.276;26.930;2022-07-15T15:15:13;98616.66;;;34.30;29.92
10658;BME280;5377;43.276;26.930;2022-07-15T15:17:40;98652.34;;;34.48;29.92
10658;BME280;5377;43.276;26.930;2022-07-15T15:20:08;98608.03;;;34.13;28.25
10658;BME280;5377;43.276;26.930;2022-07-15T15:22:35;98636.50;;;34.29;26.75
10658;BME280;5377;43.276;26.930;2022-07-15T15:25:04;98640.66;;;34.38;30.89
10658;BME280;5377;43.276;26.930;2022-07-15T15:27:31;98634.72;;;34.40;31.29
10658;BME280;5377;43.276;26.930;2022-07-15T15:30:00;98655.28;;;34.58;29.79
10658;BME280;5377;43.276;26.930;2022-07-15T15:32:28;98662.28;;;34.75;29.12
10658;BME280;5377;43.276;26.930;2022-07-15T15:34:55;98642.53;;;34.57;29.25
10658;BME280;5377;43.276;26.930;2022-07-15T15:37:22;98617.28;;;34.43;29.74
10658;BME280;5377;43.276;26.930;2022-07-15T15:39:49;98578.75;;;34.19;29.98